Terminal Aerodrome Forecast
Issued by NWS Jackson, MS

Home | Current Version | Previous Version | Text Only | Print | Product List | Glossary On
Versions: 1 2 3 4 5 6 7 8 9 10 11 12 13 14 15 16 17
000
FTUS44 KJAN 292340
TAFGLH
TAF
KGLH 292340Z 3000/3024 19012G20KT P6SM SCT050 SCT100
     FM300500 21014G23KT P6SM VCSH BKN025 OVC050
     FM300800 28012G20KT 5SM -TSRA BKN015 OVC025CB
     FM301200 01008KT P6SM SCT030 SCT050=

USA.gov is the U.S. government's official web portal to all federal, state and local government web resources and services.